Terminal Aerodrome Forecast
Issued by NWS Twin Cities, MN

Home | Current Version | Previous Version | Graphics & Text | Print | Product List | Glossary On
Versions: 1 2 3 4 5 6 7 8 9 10 11 12 13 14 15 16 17 18 19
000
FTUS43 KMPX 182300 RRA
TAFSTC
TAF
KSTC 182345Z 1900/1924 12012KT P6SM SCT060 BKN100
     FM190800 15017G25KT P6SM VCSH OVC060
      TEMPO 1910/1914 5SM -SHRA BKN035 OVC050
     FM191700 20015G22KT P6SM SCT035 BKN050
     FM192200 23013KT P6SM SCT100=

USA.gov is the U.S. government's official web portal to all federal, state and local government web resources and services.